Time;durP1;ratioP1;P1;durP2;ratioP2;P2;SDS_P1;SDS_P2;PMS_P1;PMS_P2;Temp;Humidity;BMP_temperature;BMP_pressure;BME280_temperature;BME280_humidity;BME280_pressure;Samples;Min_cycle;Max_cycle;Signal;HPM_P1;HPM_P2
2023/04/24 00:00:08;;;;;;;1.87;1.23;;;10.10;99.90;;;;;;4988221;28;20030;-86
2023/04/24 00:02:34;;;;;;;2.57;1.23;;;10.00;99.90;;;;;;4988429;28;20422;-86
2023/04/24 00:05:02;;;;;;;2.03;1.13;;;10.00;99.90;;;;;;4989484;28;20034;-85
2023/04/24 00:07:28;;;;;;;2.37;1.40;;;10.00;99.90;;;;;;4988836;28;20066;-85
2023/04/24 00:09:54;;;;;;;2.27;1.20;;;10.00;99.90;;;;;;4989297;28;20038;-86
2023/04/24 00:12:20;;;;;;;2.43;1.60;;;10.00;99.90;;;;;;4988066;28;20038;-85
2023/04/24 00:14:45;;;;;;;2.70;1.43;;;9.90;99.90;;;;;;4990104;28;20473;-85
2023/04/24 00:17:11;;;;;;;2.73;1.20;;;9.90;99.90;;;;;;4989247;28;20022;-85
2023/04/24 00:19:37;;;;;;;4.50;1.30;;;9.90;99.90;;;;;;4987687;28;20042;-84
2023/04/24 00:22:03;;;;;;;2.60;1.30;;;9.90;99.90;;;;;;4987820;28;20496;-85
2023/04/24 00:24:29;;;;;;;2.43;1.23;;;9.80;99.90;;;;;;4988910;28;20041;-85
2023/04/24 00:26:54;;;;;;;1.57;1.10;;;9.80;99.90;;;;;;4989208;28;20038;-85
2023/04/24 00:29:20;;;;;;;3.83;1.20;;;9.80;99.90;;;;;;4989069;28;20371;-84
2023/04/24 00:31:45;;;;;;;2.73;1.30;;;9.80;99.90;;;;;;4987306;28;20053;-86
2023/04/24 00:34:12;;;;;;;2.37;1.27;;;9.80;99.90;;;;;;4989355;28;20371;-85
2023/04/24 00:36:37;;;;;;;3.47;1.20;;;9.70;99.90;;;;;;4989122;28;20034;-84
2023/04/24 00:39:03;;;;;;;2.60;1.20;;;9.70;99.90;;;;;;4988723;28;20659;-85
2023/04/24 00:41:29;;;;;;;1.73;1.07;;;9.70;99.90;;;;;;4987189;28;20034;-84
2023/04/24 00:43:55;;;;;;;2.80;1.10;;;9.70;99.90;;;;;;4989091;28;20172;-84
2023/04/24 00:46:21;;;;;;;2.10;1.10;;;9.70;99.90;;;;;;4989008;28;20021;-84
2023/04/24 00:48:46;;;;;;;1.00;0.90;;;9.70;99.90;;;;;;4988919;28;20261;-85
2023/04/24 00:51:12;;;;;;;1.80;1.10;;;9.60;99.90;;;;;;4986487;28;20054;-84
2023/04/24 00:53:38;;;;;;;1.93;1.00;;;9.60;99.90;;;;;;4987492;28;20482;-85
2023/04/24 00:56:05;;;;;;;2.10;1.03;;;9.60;99.90;;;;;;4988597;28;20030;-85
2023/04/24 00:58:31;;;;;;;1.90;1.00;;;9.50;99.90;;;;;;4988167;28;20367;-84
2023/04/24 01:00:57;;;;;;;1.17;0.87;;;9.50;99.90;;;;;;4986495;28;20030;-85
2023/04/24 01:03:31;;;;;;;1.60;0.90;;;9.50;99.90;;;;;;4988673;28;21489;-85
2023/04/24 01:05:57;;;;;;;1.70;0.93;;;9.50;99.90;;;;;;4988748;28;20140;-85
2023/04/24 01:08:24;;;;;;;1.70;1.00;;;9.50;99.90;;;;;;4987985;28;20502;-85
2023/04/24 01:10:52;;;;;;;2.40;1.10;;;9.50;99.90;;;;;;4986822;28;20041;-85
2023/04/24 01:13:19;;;;;;;1.93;1.07;;;9.50;99.90;;;;;;4994434;28;20474;-85
2023/04/24 01:15:45;;;;;;;0.90;0.70;;;9.50;99.90;;;;;;4989984;28;20038;-85
2023/04/24 01:18:11;;;;;;;1.17;0.77;;;9.40;99.90;;;;;;4988410;28;20030;-86
2023/04/24 01:20:39;;;;;;;1.43;0.80;;;9.50;99.90;;;;;;4985483;28;20034;-85
2023/04/24 01:23:06;;;;;;;0.90;0.80;;;9.40;99.90;;;;;;4992254;28;20134;-86
2023/04/24 01:25:32;;;;;;;1.90;0.80;;;9.40;99.90;;;;;;4991434;28;20199;-85
2023/04/24 01:27:58;;;;;;;1.10;0.97;;;9.40;99.90;;;;;;4991997;28;20557;-86
2023/04/24 01:30:24;;;;;;;1.10;0.80;;;9.40;99.90;;;;;;4989282;28;20054;-85
2023/04/24 01:32:50;;;;;;;1.30;1.00;;;9.40;99.90;;;;;;4992045;28;20085;-85
2023/04/24 01:35:15;;;;;;;0.70;0.70;;;9.40;99.90;;;;;;4991260;28;20034;-86
2023/04/24 01:37:41;;;;;;;0.80;0.80;;;9.40;99.90;;;;;;4992090;28;20518;-85
2023/04/24 01:40:07;;;;;;;1.83;1.00;;;9.40;99.90;;;;;;4990113;28;20124;-86
2023/04/24 01:42:34;;;;;;;1.43;0.70;;;9.30;99.90;;;;;;4991369;28;20034;-85
2023/04/24 01:45:02;;;;;;;3.03;0.90;;;9.30;99.90;;;;;;4991667;28;20037;-85
2023/04/24 01:47:29;;;;;;;1.50;0.90;;;9.20;99.90;;;;;;4991561;28;20656;-85
2023/04/24 01:49:55;;;;;;;1.83;0.90;;;9.20;99.90;;;;;;4992193;28;20509;-85
2023/04/24 01:52:20;;;;;;;0.90;0.77;;;9.20;99.90;;;;;;4991348;28;20050;-85
2023/04/24 01:54:46;;;;;;;1.53;0.90;;;9.20;99.90;;;;;;4990428;28;20088;-84
2023/04/24 01:57:11;;;;;;;1.20;0.80;;;9.20;99.90;;;;;;4991445;28;20036;-85
2023/04/24 01:59:37;;;;;;;1.37;0.90;;;9.20;99.90;;;;;;4989862;28;20030;-86
2023/04/24 02:02:03;;;;;;;3.77;0.80;;;9.20;99.90;;;;;;4990982;28;20123;-85
2023/04/24 02:04:29;;;;;;;1.50;0.97;;;9.20;99.90;;;;;;4991202;28;20042;-85
2023/04/24 02:06:55;;;;;;;2.10;0.80;;;9.20;99.90;;;;;;4991201;28;20030;-85
2023/04/24 02:09:20;;;;;;;1.87;1.00;;;9.20;99.90;;;;;;4989252;28;20033;-85
2023/04/24 02:11:46;;;;;;;2.90;0.83;;;9.10;99.90;;;;;;4991053;28;20065;-85
2023/04/24 02:14:12;;;;;;;1.80;0.90;;;9.10;99.90;;;;;;4991219;28;20048;-85
2023/04/24 02:16:37;;;;;;;1.57;0.73;;;9.10;99.90;;;;;;4991096;28;20038;-85
2023/04/24 02:19:03;;;;;;;1.90;0.90;;;9.10;99.90;;;;;;4989024;28;20030;-86
2023/04/24 02:21:30;;;;;;;3.30;0.83;;;9.20;99.90;;;;;;4989950;28;20034;-85
2023/04/24 02:23:56;;;;;;;2.87;0.90;;;9.20;99.90;;;;;;4991241;28;20031;-86
2023/04/24 02:26:22;;;;;;;1.47;0.80;;;9.20;99.90;;;;;;4990830;28;20053;-86
2023/04/24 02:28:47;;;;;;;1.10;0.87;;;9.10;99.90;;;;;;4990343;28;20030;-85
2023/04/24 02:31:13;;;;;;;1.27;0.80;;;9.20;99.90;;;;;;4989478;28;20041;-85
2023/04/24 02:33:38;;;;;;;1.33;0.80;;;9.10;99.90;;;;;;4990025;28;20034;-86
2023/04/24 02:36:04;;;;;;;1.27;0.80;;;9.10;99.90;;;;;;4990065;28;20038;-86
2023/04/24 02:38:29;;;;;;;4.03;1.00;;;9.10;99.90;;;;;;4991023;28;20068;-85
2023/04/24 02:40:55;;;;;;;3.03;0.90;;;9.10;99.90;;;;;;4988618;28;21305;-85
2023/04/24 02:43:21;;;;;;;1.07;0.70;;;9.10;99.90;;;;;;4990521;28;20053;-85
2023/04/24 02:45:46;;;;;;;1.53;0.70;;;9.10;99.90;;;;;;4990221;28;20034;-86
2023/04/24 02:48:12;;;;;;;2.97;1.43;;;9.10;99.90;;;;;;4990259;28;21440;-86
2023/04/24 02:50:37;;;;;;;1.90;0.90;;;9.10;99.90;;;;;;4992011;28;20524;-85
2023/04/24 02:53:03;;;;;;;1.77;1.00;;;9.10;99.90;;;;;;4990965;28;20560;-85
2023/04/24 02:55:30;;;;;;;2.27;0.90;;;9.10;99.90;;;;;;4989685;28;20081;-85
2023/04/24 02:57:55;;;;;;;1.87;1.10;;;9.10;99.90;;;;;;4990319;28;20041;-85
2023/04/24 03:00:21;;;;;;;1.20;0.90;;;9.10;99.90;;;;;;4989015;28;20034;-86
2023/04/24 03:02:46;;;;;;;1.60;0.90;;;9.10;99.90;;;;;;4990001;28;20042;-85
2023/04/24 03:05:12;;;;;;;4.83;1.00;;;9.10;99.90;;;;;;4989985;28;20038;-85
2023/04/24 03:07:38;;;;;;;1.10;1.00;;;9.10;99.90;;;;;;4990802;28;20026;-84
2023/04/24 03:10:05;;;;;;;1.37;0.97;;;9.10;99.90;;;;;;4987847;28;20093;-85
2023/04/24 03:12:31;;;;;;;1.60;0.77;;;9.10;99.90;;;;;;4990396;28;20049;-85
2023/04/24 03:14:56;;;;;;;2.17;0.80;;;9.00;99.90;;;;;;4990059;28;20026;-84
2023/04/24 03:17:22;;;;;;;1.33;0.90;;;9.10;99.90;;;;;;4989661;28;20038;-85
2023/04/24 03:19:48;;;;;;;2.70;1.60;;;9.10;99.90;;;;;;4987844;28;20066;-84
2023/04/24 03:22:13;;;;;;;3.07;1.10;;;9.10;99.90;;;;;;4989729;28;20034;-85
2023/04/24 03:24:40;;;;;;;1.30;0.90;;;9.10;99.90;;;;;;4989514;28;20038;-84
2023/04/24 03:27:05;;;;;;;2.07;1.30;;;9.00;99.90;;;;;;4989601;28;20108;-84
2023/04/24 03:29:31;;;;;;;3.07;1.40;;;9.00;99.90;;;;;;4988249;28;21402;-85
2023/04/24 03:31:56;;;;;;;1.90;1.20;;;9.00;99.90;;;;;;4989816;28;20048;-84
2023/04/24 03:34:22;;;;;;;1.67;1.10;;;9.00;99.90;;;;;;4990095;28;20033;-84
2023/04/24 03:36:47;;;;;;;3.63;0.97;;;9.00;99.90;;;;;;4990195;28;20718;-84
2023/04/24 03:39:13;;;;;;;2.83;1.00;;;9.00;99.90;;;;;;4989118;28;20034;-84
2023/04/24 03:41:39;;;;;;;3.60;1.10;;;9.00;99.90;;;;;;4990100;28;20343;-84
2023/04/24 03:44:04;;;;;;;2.93;1.20;;;9.00;99.90;;;;;;4989329;28;20027;-85
2023/04/24 03:46:30;;;;;;;1.40;1.00;;;9.00;99.90;;;;;;5006583;23;20050;-82
2023/04/24 03:48:55;;;;;;;2.40;1.37;;;9.00;99.90;;;;;;4965098;28;20046;-83
2023/04/24 03:51:21;;;;;;;2.63;1.00;;;8.90;99.90;;;;;;4966826;28;20137;-82
2023/04/24 03:53:47;;;;;;;2.97;1.10;;;8.90;99.90;;;;;;4967055;28;20031;-83
2023/04/24 03:56:12;;;;;;;2.37;1.17;;;8.90;99.90;;;;;;4964323;28;20384;-83
2023/04/24 03:58:38;;;;;;;1.73;1.00;;;8.90;99.90;;;;;;4966535;28;20026;-82
2023/04/24 04:01:03;;;;;;;2.10;1.00;;;8.90;99.90;;;;;;4971994;28;20042;-82
2023/04/24 04:03:29;;;;;;;2.13;1.17;;;8.90;99.90;;;;;;4972205;28;20046;-82
2023/04/24 04:05:55;;;;;;;4.33;1.90;;;8.90;99.90;;;;;;4972448;28;20041;-82
2023/04/24 04:08:20;;;;;;;3.17;1.40;;;8.80;99.90;;;;;;4971471;28;20041;-81
2023/04/24 04:10:46;;;;;;;2.47;1.13;;;8.80;99.90;;;;;;4971591;28;20526;-82
2023/04/24 04:13:11;;;;;;;2.57;1.50;;;8.80;99.90;;;;;;4970607;28;20065;-82
2023/04/24 04:15:37;;;;;;;2.20;1.10;;;8.80;99.90;;;;;;4971804;28;20117;-82
2023/04/24 04:18:03;;;;;;;3.77;1.00;;;8.80;99.90;;;;;;4968648;28;20035;-81
2023/04/24 04:20:28;;;;;;;1.83;1.13;;;8.80;99.90;;;;;;4969548;28;20035;-81
2023/04/24 04:22:54;;;;;;;1.83;1.07;;;8.80;99.90;;;;;;4971032;28;20027;-81
2023/04/24 04:25:19;;;;;;;3.10;1.47;;;8.80;99.90;;;;;;4971542;28;20065;-81
2023/04/24 04:27:47;;;;;;;1.70;1.10;;;8.80;99.90;;;;;;4970644;28;20054;-81
2023/04/24 04:30:13;;;;;;;2.77;1.10;;;8.80;99.90;;;;;;4969084;28;20039;-81
2023/04/24 04:32:39;;;;;;;1.27;1.00;;;8.90;99.90;;;;;;4973188;28;20082;-81
2023/04/24 04:35:05;;;;;;;1.40;0.90;;;8.90;99.90;;;;;;4975076;28;20119;-82
2023/04/24 04:37:31;;;;;;;2.03;1.00;;;8.90;99.90;;;;;;4974572;28;21369;-81
2023/04/24 04:39:57;;;;;;;1.93;1.00;;;8.90;99.90;;;;;;4972239;28;20026;-76
2023/04/24 04:42:24;;;;;;;1.50;1.13;;;8.90;99.90;;;;;;4961090;28;20038;-77
2023/04/24 04:44:50;;;;;;;4.40;1.30;;;8.80;99.90;;;;;;4961712;28;20495;-77
2023/04/24 04:47:17;;;;;;;2.07;1.10;;;8.80;99.90;;;;;;4957522;28;20165;-77
2023/04/24 04:49:43;;;;;;;2.40;0.90;;;8.80;99.90;;;;;;4957274;28;20070;-77
2023/04/24 04:52:09;;;;;;;1.20;0.87;;;8.90;99.90;;;;;;4956325;28;20039;-76
2023/04/24 04:54:34;;;;;;;1.50;0.90;;;8.90;99.90;;;;;;4960209;28;20109;-77
2023/04/24 04:57:00;;;;;;;2.63;1.10;;;8.80;99.90;;;;;;4958672;28;20582;-77
2023/04/24 04:59:26;;;;;;;1.80;0.90;;;8.90;99.90;;;;;;4959308;28;20023;-77
2023/04/24 05:01:52;;;;;;;1.27;0.83;;;8.90;99.90;;;;;;4960519;28;20038;-77
2023/04/24 05:04:18;;;;;;;2.80;1.10;;;8.80;99.90;;;;;;4957348;28;20038;-78
2023/04/24 05:06:43;;;;;;;1.40;1.10;;;8.90;99.90;;;;;;4960768;28;20522;-78
2023/04/24 05:09:09;;;;;;;2.00;0.73;;;8.90;99.90;;;;;;4960253;28;20115;-79
2023/04/24 05:11:35;;;;;;;2.53;1.17;;;9.00;99.90;;;;;;4959940;28;20156;-78
2023/04/24 05:14:00;;;;;;;2.20;1.00;;;9.00;99.90;;;;;;4959724;28;20027;-78
2023/04/24 05:16:26;;;;;;;2.70;1.33;;;9.00;99.90;;;;;;4960536;28;20034;-85
2023/04/24 05:18:52;;;;;;;1.77;1.10;;;9.10;99.90;;;;;;4963228;28;20030;-84
2023/04/24 05:21:17;;;;;;;2.30;1.10;;;9.20;99.90;;;;;;4963672;28;20031;-84
2023/04/24 05:23:43;;;;;;;1.83;0.90;;;9.10;99.90;;;;;;4967569;28;20499;-85
2023/04/24 05:26:08;;;;;;;1.67;1.00;;;9.20;99.90;;;;;;4966861;28;20058;-83
2023/04/24 05:28:36;;;;;;;1.60;0.97;;;9.30;99.90;;;;;;4966130;28;20046;-84
2023/04/24 05:31:02;;;;;;;2.00;0.97;;;9.30;99.90;;;;;;4967135;28;20066;-85
2023/04/24 05:33:27;;;;;;;3.43;1.00;;;9.40;99.90;;;;;;4968143;28;20034;-84
2023/04/24 05:35:53;;;;;;;1.90;1.00;;;9.40;99.90;;;;;;4967675;28;20475;-83
2023/04/24 05:38:19;;;;;;;2.60;0.93;;;9.40;99.90;;;;;;4965548;28;20035;-84
2023/04/24 05:40:45;;;;;;;1.83;0.93;;;9.40;99.90;;;;;;4965576;28;20035;-84
2023/04/24 05:43:11;;;;;;;2.30;1.00;;;9.40;99.90;;;;;;4967578;28;20645;-84
2023/04/24 05:45:38;;;;;;;2.20;1.00;;;9.40;99.90;;;;;;4967595;28;20039;-84
2023/04/24 05:48:03;;;;;;;3.70;1.50;;;9.40;99.90;;;;;;4966045;28;20039;-84
2023/04/24 05:50:29;;;;;;;3.00;0.90;;;9.50;99.90;;;;;;4967083;28;20069;-85
2023/04/24 05:52:56;;;;;;;5.63;1.20;;;9.50;99.90;;;;;;4966151;28;20065;-85
2023/04/24 05:55:21;;;;;;;3.33;1.00;;;9.60;99.90;;;;;;4967957;28;20030;-84
2023/04/24 05:57:47;;;;;;;2.57;0.90;;;9.60;99.90;;;;;;4967956;28;20030;-85
2023/04/24 06:00:13;;;;;;;1.50;0.90;;;9.70;99.90;;;;;;4966330;28;20034;-84
2023/04/24 06:02:39;;;;;;;1.30;0.80;;;9.80;99.90;;;;;;4967768;28;20019;-84
2023/04/24 06:05:04;;;;;;;3.27;1.10;;;9.90;99.90;;;;;;4965879;28;21355;-83
2023/04/24 06:07:31;;;;;;;2.23;1.07;;;9.90;99.90;;;;;;4969315;28;20026;-85
2023/04/24 06:09:56;;;;;;;1.93;1.07;;;10.00;99.90;;;;;;4970434;28;20034;-86
2023/04/24 06:12:22;;;;;;;4.13;1.47;;;10.00;99.90;;;;;;4969410;28;20150;-84
2023/04/24 06:14:48;;;;;;;3.57;1.33;;;10.00;99.90;;;;;;4969091;28;20166;-85
2023/04/24 06:17:15;;;;;;;2.53;1.27;;;10.00;99.90;;;;;;4969898;28;20038;-84
2023/04/24 06:19:41;;;;;;;2.97;1.20;;;10.10;99.90;;;;;;4967302;28;20041;-84
2023/04/24 06:22:07;;;;;;;3.77;1.30;;;10.10;99.90;;;;;;4967209;28;20026;-82
2023/04/24 06:24:34;;;;;;;2.70;1.20;;;10.20;99.90;;;;;;4969522;28;20038;-82
2023/04/24 06:27:01;;;;;;;1.53;0.90;;;10.20;99.90;;;;;;4970991;28;20038;-82
2023/04/24 06:29:27;;;;;;;0.97;0.90;;;10.10;99.90;;;;;;4968357;28;20814;-82
2023/04/24 06:31:52;;;;;;;2.20;1.10;;;10.20;99.90;;;;;;4970328;28;20050;-82
2023/04/24 06:34:18;;;;;;;1.37;0.63;;;10.20;99.90;;;;;;4968834;28;20027;-84
2023/04/24 06:36:44;;;;;;;1.50;0.80;;;10.20;99.90;;;;;;4964895;28;21045;-83
2023/04/24 06:39:10;;;;;;;1.40;0.70;;;10.20;99.90;;;;;;4968163;28;20018;-85
2023/04/24 06:41:35;;;;;;;1.27;0.57;;;10.40;99.90;;;;;;4968383;28;20545;-83
2023/04/24 06:44:01;;;;;;;2.00;0.50;;;10.30;99.90;;;;;;4966368;28;20407;-83
2023/04/24 06:46:27;;;;;;;1.10;0.70;;;10.30;99.90;;;;;;4964767;28;20039;-83
2023/04/24 06:48:56;;;;;;;0.60;0.60;;;10.40;99.90;;;;;;4969553;28;20501;-83
2023/04/24 06:51:25;;;;;;;1.67;0.60;;;10.40;99.90;;;;;;4967335;28;20163;-84
2023/04/24 06:53:55;;;;;;;0.83;0.60;;;10.50;99.90;;;;;;4966903;28;20034;-82
2023/04/24 06:56:22;;;;;;;1.25;0.68;;;10.60;99.90;;;;;;4967616;28;20031;-83
2023/04/24 06:58:47;;;;;;;2.40;0.60;;;10.60;99.90;;;;;;4962774;28;20035;-83
2023/04/24 07:01:13;;;;;;;1.07;0.70;;;10.70;99.90;;;;;;4965364;28;20038;-83
2023/04/24 07:03:39;;;;;;;1.57;0.60;;;10.70;99.90;;;;;;4968446;28;20026;-85
2023/04/24 07:06:05;;;;;;;1.60;0.63;;;10.80;99.90;;;;;;4970728;28;20068;-82
2023/04/24 07:08:30;;;;;;;2.17;0.60;;;10.90;99.90;;;;;;4968882;28;20109;-83
2023/04/24 07:10:56;;;;;;;1.05;0.60;;;11.10;99.90;;;;;;4967061;28;20839;-82
2023/04/24 07:13:23;;;;;;;0.75;0.60;;;11.20;99.90;;;;;;4967576;28;20557;-82
2023/04/24 07:15:53;;;;;;;4.93;0.65;;;11.20;99.90;;;;;;4968763;28;20277;-83
2023/04/24 07:18:19;;;;;;;0.90;0.55;;;11.30;99.90;;;;;;4969234;28;20077;-82
2023/04/24 07:20:45;;;;;;;1.05;0.60;;;11.30;99.90;;;;;;4966926;28;20035;-82
2023/04/24 07:23:11;;;;;;;2.38;0.77;;;11.20;99.90;;;;;;4968188;28;20034;-82
2023/04/24 07:25:36;;;;;;;1.45;0.65;;;11.20;99.90;;;;;;4969175;28;20094;-83
2023/04/24 07:28:02;;;;;;;0.60;0.60;;;11.30;99.90;;;;;;4966623;28;20784;-82
2023/04/24 07:30:28;;;;;;;1.17;0.55;;;11.30;99.90;;;;;;4964243;28;20057;-83
2023/04/24 07:32:55;;;;;;;1.57;0.50;;;11.10;99.90;;;;;;4963342;28;20035;-82
2023/04/24 07:35:21;;;;;;;0.90;0.60;;;11.00;99.90;;;;;;4964637;28;20205;-83
2023/04/24 07:37:46;;;;;;;1.30;0.60;;;10.90;99.90;;;;;;4965043;28;20121;-83
2023/04/24 07:40:13;;;;;;;1.75;0.73;;;10.90;99.90;;;;;;4962748;28;20039;-82
2023/04/24 07:42:39;;;;;;;0.80;0.50;;;10.90;99.90;;;;;;4962955;28;20055;-85
2023/04/24 07:45:05;;;;;;;1.15;0.77;;;10.90;99.90;;;;;;4966544;28;20136;-83
2023/04/24 07:47:31;;;;;;;1.17;0.60;;;10.90;99.90;;;;;;4968503;28;20034;-83
2023/04/24 07:49:57;;;;;;;1.25;0.70;;;10.90;99.90;;;;;;4968484;28;20045;-83
2023/04/24 07:52:23;;;;;;;1.17;0.60;;;11.00;99.90;;;;;;4968966;28;20026;-84
2023/04/24 07:54:49;;;;;;;0.90;0.70;;;11.10;99.90;;;;;;4968104;28;20043;-84
2023/04/24 07:57:15;;;;;;;0.98;0.57;;;11.10;99.90;;;;;;4967953;28;20051;-85
2023/04/24 07:59:41;;;;;;;1.27;0.70;;;11.10;99.90;;;;;;4970149;28;20077;-83
2023/04/24 08:02:07;;;;;;;1.00;0.52;;;11.20;99.90;;;;;;4969455;28;20095;-83
2023/04/24 08:04:33;;;;;;;1.15;0.80;;;11.30;99.90;;;;;;4970756;28;20097;-83
2023/04/24 08:06:58;;;;;;;1.65;0.90;;;11.30;99.90;;;;;;4969123;28;20035;-84
2023/04/24 08:09:24;;;;;;;1.20;0.70;;;11.40;99.90;;;;;;4970194;28;20038;-83
2023/04/24 08:11:50;;;;;;;1.67;0.90;;;11.40;99.90;;;;;;4970062;28;20054;-85
2023/04/24 08:14:15;;;;;;;0.75;0.68;;;11.50;99.90;;;;;;4969519;28;20034;-84
2023/04/24 08:16:41;;;;;;;0.80;0.70;;;11.50;99.90;;;;;;4969147;28;20038;-83
2023/04/24 08:19:07;;;;;;;2.08;0.60;;;11.50;99.90;;;;;;4969076;28;20041;-85
2023/04/24 08:21:32;;;;;;;0.95;0.60;;;11.50;99.90;;;;;;4969054;28;20030;-83
2023/04/24 08:23:58;;;;;;;0.45;0.45;;;11.50;99.90;;;;;;4968461;28;20502;-84
2023/04/24 08:26:24;;;;;;;0.60;0.60;;;11.40;99.90;;;;;;4966794;28;20068;-84
2023/04/24 08:28:50;;;;;;;1.33;0.60;;;11.20;99.90;;;;;;4969099;28;20068;-85
2023/04/24 08:31:15;;;;;;;2.67;0.70;;;11.00;99.90;;;;;;4966989;28;20043;-83
2023/04/24 08:33:41;;;;;;;1.35;0.90;;;10.90;99.90;;;;;;4966928;28;20494;-83
2023/04/24 08:36:07;;;;;;;1.93;0.93;;;10.80;99.90;;;;;;4966578;28;20034;-83
2023/04/24 08:38:33;;;;;;;1.27;0.70;;;10.70;99.90;;;;;;4967232;28;20031;-83
2023/04/24 08:41:00;;;;;;;3.15;0.80;;;10.60;99.90;;;;;;4968266;28;20064;-84
2023/04/24 08:43:27;;;;;;;3.40;1.27;;;10.60;99.90;;;;;;4964523;28;20046;-84
2023/04/24 08:45:55;;;;;;;1.93;1.00;;;10.70;99.90;;;;;;4968224;28;21387;-82
2023/04/24 08:48:22;;;;;;;3.20;1.23;;;10.80;99.90;;;;;;4969613;28;20478;-83
2023/04/24 08:50:50;;;;;;;2.07;1.00;;;10.90;99.90;;;;;;4966960;28;20120;-84
2023/04/24 08:53:16;;;;;;;3.07;1.00;;;10.90;99.90;;;;;;4968198;28;20034;-83
2023/04/24 08:55:46;;;;;;;1.73;1.10;;;11.00;99.90;;;;;;4969450;28;20034;-84
2023/04/24 08:58:12;;;;;;;3.70;1.17;;;11.10;99.90;;;;;;4970882;28;20037;-84
2023/04/24 09:00:39;;;;;;;2.53;1.20;;;11.10;99.90;;;;;;4970538;28;20045;-84
2023/04/24 09:03:06;;;;;;;3.93;1.17;;;11.30;99.90;;;;;;4970685;28;20050;-85
2023/04/24 09:05:33;;;;;;;2.87;1.30;;;11.30;99.90;;;;;;4970606;28;20063;-84
2023/04/24 09:08:01;;;;;;;1.90;1.10;;;11.30;99.90;;;;;;4970486;28;20046;-84
2023/04/24 09:10:30;;;;;;;0.90;0.87;;;11.30;99.90;;;;;;4968838;28;20039;-84
2023/04/24 09:12:58;;;;;;;2.97;1.13;;;11.40;99.90;;;;;;4969814;28;20041;-84
2023/04/24 09:15:24;;;;;;;1.83;1.00;;;11.40;99.90;;;;;;4970950;28;20038;-84
2023/04/24 09:17:50;;;;;;;3.00;1.10;;;11.60;99.90;;;;;;4969492;28;20045;-85
2023/04/24 09:20:15;;;;;;;3.97;1.10;;;11.70;99.90;;;;;;4969343;28;20042;-84
2023/04/24 09:22:43;;;;;;;1.85;1.20;;;11.70;99.90;;;;;;4969983;28;20041;-84
2023/04/24 09:25:11;;;;;;;2.22;1.38;;;11.90;99.90;;;;;;4969483;28;20038;-85
2023/04/24 09:27:42;;;;;;;4.85;1.30;;;11.90;99.90;;;;;;4969800;28;20137;-85
2023/04/24 09:30:08;;;;;;;1.48;1.08;;;11.90;99.90;;;;;;4968361;28;20042;-85
2023/04/24 09:32:34;;;;;;;2.55;1.20;;;11.90;99.90;;;;;;4965748;28;20085;-84
2023/04/24 09:35:10;;;;;;;2.25;1.50;;;11.90;99.90;;;;;;4970412;28;20081;-85
2023/04/24 09:37:44;;;;;;;4.50;1.40;;;12.00;99.90;;;;;;4969911;28;20038;-85
2023/04/24 09:40:21;;;;;;;6.70;1.80;;;12.30;99.90;;;;;;4967597;28;20037;-84
2023/04/24 09:42:58;;;;;;;4.60;2.17;;;12.50;99.90;;;;;;4970035;28;20038;-85
2023/04/24 09:45:42;;;;;;;3.05;1.35;;;12.60;99.90;;;;;;4971732;28;20046;-85
2023/04/24 09:48:10;;;;;;;3.00;1.48;;;12.70;99.90;;;;;;4971950;28;20043;-85
2023/04/24 09:50:37;;;;;;;5.60;1.60;;;12.70;99.90;;;;;;4969656;28;20042;-86
2023/04/24 09:53:05;;;;;;;3.38;1.20;;;12.80;99.90;;;;;;4970018;28;20140;-84
2023/04/24 09:55:31;;;;;;;2.65;1.58;;;12.80;99.90;;;;;;4969615;28;20042;-85
2023/04/24 09:57:59;;;;;;;3.63;1.40;;;12.90;99.90;;;;;;4969309;28;20498;-84
2023/04/24 10:00:31;;;;;;;1.67;1.20;;;12.90;99.90;;;;;;4967656;28;20044;-85
2023/04/24 10:03:06;;;;;;;3.13;1.30;;;13.10;99.90;;;;;;4970384;28;20162;-85
2023/04/24 10:05:34;;;;;;;5.95;1.40;;;13.30;99.90;;;;;;4970980;28;20058;-84
2023/04/24 10:08:10;;;;;;;1.35;1.08;;;13.30;99.90;;;;;;4969908;28;20043;-85
2023/04/24 10:10:39;;;;;;;4.88;2.20;;;13.30;99.90;;;;;;4968027;28;20050;-85
2023/04/24 10:13:05;;;;;;;2.63;1.50;;;13.30;99.90;;;;;;4968871;28;20043;-84
2023/04/24 10:15:31;;;;;;;8.80;1.25;;;13.30;99.90;;;;;;4969798;28;20031;-85
2023/04/24 10:17:59;;;;;;;2.45;1.40;;;13.20;99.90;;;;;;4970289;28;20978;-85
2023/04/24 10:20:28;;;;;;;3.45;1.30;;;13.20;99.90;;;;;;4967895;28;20764;-84
2023/04/24 10:22:54;;;;;;;3.72;1.20;;;13.20;99.90;;;;;;4970117;28;20363;-84
2023/04/24 10:25:22;;;;;;;1.30;1.00;;;13.40;99.90;;;;;;5072200;23;20054;-85
2023/04/24 10:27:49;;;;;;;1.30;1.10;;;13.50;99.90;;;;;;4979341;28;20414;-84
2023/04/24 10:30:15;;;;;;;1.50;1.13;;;13.60;99.90;;;;;;4972117;28;20030;-82
2023/04/24 10:32:41;;;;;;;2.20;1.02;;;13.50;99.90;;;;;;4957057;28;20100;-82
2023/04/24 10:35:08;;;;;;;2.25;1.27;;;13.30;99.90;;;;;;4956459;28;20101;-82
2023/04/24 10:37:39;;;;;;;3.78;1.10;;;13.20;99.90;;;;;;4957779;28;20039;-82
2023/04/24 10:40:07;;;;;;;2.35;1.15;;;13.10;99.90;;;;;;4949179;28;20205;-80
2023/04/24 10:42:33;;;;;;;4.20;0.88;;;12.40;99.90;;;;;;4957976;28;20035;-80
2023/04/24 10:45:01;;;;;;;2.67;1.40;;;11.90;99.90;;;;;;4960604;28;20038;-80
2023/04/24 10:47:27;;;;;;;2.20;0.90;;;11.50;99.90;;;;;;4958183;28;20524;-78
2023/04/24 10:49:53;;;;;;;1.77;1.00;;;11.00;99.90;;;;;;4957912;28;20038;-78
2023/04/24 10:52:20;;;;;;;1.35;0.80;;;10.70;99.90;;;;;;4960864;28;20043;-79
2023/04/24 10:54:47;;;;;;;1.33;0.90;;;10.50;99.90;;;;;;4956394;28;20117;-80
2023/04/24 10:57:29;;;;;;;1.77;1.00;;;10.40;99.90;;;;;;4957213;28;20031;-80
2023/04/24 11:00:20;;;;;;;1.60;0.90;;;10.50;99.90;;;;;;4959355;28;20066;-79
2023/04/24 11:02:52;;;;;;;0.97;0.87;;;10.60;99.90;;;;;;4957814;28;20035;-80
2023/04/24 11:05:19;;;;;;;1.48;0.80;;;10.70;99.90;;;;;;4958224;28;20027;-79
2023/04/24 11:08:14;;;;;;;1.33;0.90;;;10.90;99.90;;;;;;4956807;28;20038;-80
2023/04/24 11:11:00;;;;;;;1.60;0.90;;;11.30;99.90;;;;;;4957477;28;20174;-80
2023/04/24 11:13:48;;;;;;;1.40;0.90;;;11.80;99.90;;;;;;4943906;28;20047;-79
2023/04/24 11:16:33;;;;;;;2.50;1.10;;;12.30;99.90;;;;;;4956821;28;20117;-80
2023/04/24 11:19:06;;;;;;;1.63;1.05;;;12.60;99.90;;;;;;4956913;28;20503;-81
2023/04/24 11:21:38;;;;;;;2.45;1.30;;;12.60;99.90;;;;;;4954542;28;20038;-81
2023/04/24 11:24:22;;;;;;;1.67;0.90;;;12.60;99.90;;;;;;4955831;28;20034;-81
2023/04/24 11:26:48;;;;;;;1.15;0.82;;;12.40;99.90;;;;;;4955875;28;20086;-80
2023/04/24 11:29:14;;;;;;;1.45;0.90;;;12.30;99.90;;;;;;4954364;28;20023;-81
2023/04/24 11:31:41;;;;;;;1.60;0.80;;;12.20;99.90;;;;;;4955449;28;20101;-80
2023/04/24 11:34:09;;;;;;;1.27;1.02;;;12.30;99.90;;;;;;4958423;28;20030;-79
2023/04/24 11:36:35;;;;;;;2.05;0.73;;;12.50;99.90;;;;;;4959398;28;20031;-80
2023/04/24 11:39:01;;;;;;;2.13;0.88;;;12.60;99.90;;;;;;4958516;28;20039;-81
2023/04/24 11:41:28;;;;;;;2.25;0.90;;;12.80;99.90;;;;;;4959857;28;20037;-81
2023/04/24 11:43:55;;;;;;;1.13;0.95;;;13.20;99.90;;;;;;4959409;28;20035;-85
2023/04/24 11:46:26;;;;;;;1.30;1.15;;;13.70;99.90;;;;;;4957838;28;20122;-80
2023/04/24 11:48:51;;;;;;;2.33;0.80;;;13.90;99.90;;;;;;4958472;28;20039;-79
2023/04/24 11:51:17;;;;;;;2.55;1.00;;;14.10;99.90;;;;;;4957291;28;20050;-80
2023/04/24 11:53:43;;;;;;;3.08;1.30;;;14.20;99.90;;;;;;4959218;28;20032;-79
2023/04/24 11:56:11;;;;;;;1.90;1.02;;;14.20;99.90;;;;;;4959397;28;20619;-79
2023/04/24 11:58:38;;;;;;;1.58;1.17;;;14.30;99.90;;;;;;4958888;28;20062;-79
2023/04/24 12:01:04;;;;;;;3.05;1.20;;;14.20;99.90;;;;;;4957334;28;20030;-80
2023/04/24 12:03:30;;;;;;;1.95;1.05;;;14.20;99.90;;;;;;4958762;28;20031;-81
2023/04/24 12:06:07;;;;;;;2.50;1.10;;;14.20;99.90;;;;;;4958633;28;20042;-83
2023/04/24 12:08:33;;;;;;;2.33;1.10;;;14.40;99.90;;;;;;4958024;28;20161;-82
2023/04/24 12:11:04;;;;;;;2.53;1.00;;;14.60;99.90;;;;;;4957707;28;20046;-82
2023/04/24 12:13:30;;;;;;;4.75;1.20;;;14.80;99.90;;;;;;4959363;28;20046;-84
2023/04/24 12:15:59;;;;;;;2.35;1.25;;;15.20;99.90;;;;;;4958811;28;20031;-81
2023/04/24 12:18:25;;;;;;;2.03;1.10;;;15.30;99.90;;;;;;4959073;28;20054;-82
2023/04/24 12:20:51;;;;;;;2.15;1.10;;;15.50;99.90;;;;;;4961148;28;20027;-86
2023/04/24 12:23:17;;;;;;;1.90;1.10;;;15.80;99.90;;;;;;4959698;28;20038;-86
2023/04/24 12:25:43;;;;;;;1.35;1.10;;;16.10;99.90;;;;;;4957962;28;20054;-85
2023/04/24 12:28:11;;;;;;;1.73;1.17;;;16.40;99.90;;;;;;4959999;28;20031;-85
2023/04/24 12:30:44;;;;;;;3.00;1.08;;;16.70;99.90;;;;;;4956273;28;20047;-88
2023/04/24 12:33:09;;;;;;;3.45;1.13;;;16.60;99.90;;;;;;4954695;28;20126;-88
2023/04/24 12:35:35;;;;;;;7.25;1.23;;;16.70;99.90;;;;;;4954312;28;20031;-88
2023/04/24 12:38:14;;;;;;;2.17;1.10;;;17.10;99.90;;;;;;4954852;28;20035;-88
2023/04/24 12:40:41;;;;;;;3.25;1.10;;;17.40;99.90;;;;;;4954629;28;20142;-89
2023/04/24 12:43:20;;;;;;;4.07;1.10;;;17.70;99.90;;;;;;4954288;28;20038;-88
2023/04/24 12:45:48;;;;;;;2.15;1.00;;;17.70;99.90;;;;;;4953875;28;20042;-88
2023/04/24 12:48:14;;;;;;;3.90;1.15;;;17.60;99.90;;;;;;4954338;28;21043;-89